Wetterdaten: Montag, 18.01.2010
Datum Zeit Temp. A. Feuchte A. Luftdruck Regen Wind Richtung Richtung Sonnenschein UV Solar Windben
18.01.2010 00:00 3,1 C 93 % 1019,6 hPa 0,0 mm 1,6 km/h (1 Bft) SW 225 0 min 0 UV-I 0 W/m 8,0 km/h (2 Bft)
18.01.2010 00:10 3,1 C 93 % 1019,7 hPa 0,0 mm 3,2 km/h (1 Bft) W-SW 247 0 min 0 UV-I 0 W/m 9,7 km/h (2 Bft)
18.01.2010 00:20 3,1 C 93 % 1019,7 hPa 0,0 mm 1,6 km/h (1 Bft) W-SW 247 0 min 0 UV-I 0 W/m 6,4 km/h (2 Bft)
18.01.2010 00:30 3,1 C 93 % 1019,8 hPa 0,3 mm 3,2 km/h (1 Bft) SW 225 0 min 0 UV-I 0 W/m 9,7 km/h (2 Bft)
18.01.2010 00:40 3,0 C 93 % 1019,8 hPa 0,0 mm 3,2 km/h (1 Bft) W-SW 247 0 min 0 UV-I 0 W/m 9,7 km/h (2 Bft)
18.01.2010 00:50 3,0 C 93 % 1019,9 hPa 0,0 mm 3,2 km/h (1 Bft) W-SW 247 0 min 0 UV-I 0 W/m 8,0 km/h (2 Bft)
18.01.2010 01:00 3,0 C 93 % 1019,9 hPa 0,0 mm 3,2 km/h (1 Bft) W-SW 247 0 min 0 UV-I 0 W/m 12,9 km/h (3 Bft)
18.01.2010 01:10 3,0 C 93 % 1019,9 hPa 0,0 mm 4,8 km/h (1 Bft) W-SW 247 0 min 0 UV-I 0 W/m 11,3 km/h (2 Bft)
18.01.2010 01:20 3,1 C 93 % 1020,0 hPa 0,0 mm 1,6 km/h (1 Bft) W-SW 247 0 min 0 UV-I 0 W/m 8,0 km/h (2 Bft)
18.01.2010 01:30 3,1 C 93 % 1020,0 hPa 0,0 mm 1,6 km/h (1 Bft) W-SW 247 0 min 0 UV-I 0 W/m 9,7 km/h (2 Bft)
18.01.2010 01:40 3,1 C 93 % 1020,1 hPa 0,0 mm 1,6 km/h (1 Bft) S-SW 202 0 min 0 UV-I 0 W/m 8,0 km/h (2 Bft)
18.01.2010 01:50 3,1 C 93 % 1020,2 hPa 0,0 mm 3,2 km/h (1 Bft) W-SW 247 0 min 0 UV-I 0 W/m 9,7 km/h (2 Bft)
18.01.2010 02:00 3,1 C 93 % 1020,2 hPa 0,0 mm 3,2 km/h (1 Bft) W-SW 247 0 min 0 UV-I 0 W/m 8,0 km/h (2 Bft)
18.01.2010 02:10 3,1 C 93 % 1020,4 hPa 0,0 mm 3,2 km/h (1 Bft) W-SW 247 0 min 0 UV-I 0 W/m 9,7 km/h (2 Bft)
18.01.2010 02:20 3,1 C 93 % 1020,5 hPa 0,0 mm 3,2 km/h (1 Bft) W-SW 247 0 min 0 UV-I 0 W/m 11,3 km/h (2 Bft)
18.01.2010 02:30 3,1 C 93 % 1020,5 hPa 0,0 mm 3,2 km/h (1 Bft) W 270 0 min 0 UV-I 0 W/m 14,5 km/h (3 Bft)
18.01.2010 02:40 3,2 C 93 % 1020,6 hPa 0,0 mm 3,2 km/h (1 Bft) W 270 0 min 0 UV-I 0 W/m 11,3 km/h (2 Bft)
18.01.2010 02:50 3,2 C 93 % 1020,5 hPa 0,0 mm 1,6 km/h (1 Bft) W 270 0 min 0 UV-I 0 W/m 8,0 km/h (2 Bft)
18.01.2010 03:00 3,2 C 93 % 1020,6 hPa 0,0 mm 3,2 km/h (1 Bft) W-SW 247 0 min 0 UV-I 0 W/m 11,3 km/h (2 Bft)
18.01.2010 03:10 3,2 C 93 % 1020,7 hPa 0,0 mm 3,2 km/h (1 Bft) W-SW 247 0 min 0 UV-I 0 W/m 9,7 km/h (2 Bft)
18.01.2010 03:20 3,2 C 93 % 1020,8 hPa 0,0 mm 3,2 km/h (1 Bft) W-SW 247 0 min 0 UV-I 0 W/m 11,3 km/h (2 Bft)
18.01.2010 03:30 3,2 C 93 % 1020,9 hPa 0,0 mm 3,2 km/h (1 Bft) W-SW 247 0 min 0 UV-I 0 W/m 9,7 km/h (2 Bft)
18.01.2010 03:40 3,2 C 93 % 1020,9 hPa 0,0 mm 3,2 km/h (1 Bft) W-SW 247 0 min 0 UV-I 0 W/m 8,0 km/h (2 Bft)
18.01.2010 03:50 3,2 C 93 % 1021,0 hPa 0,0 mm 3,2 km/h (1 Bft) W-SW 247 0 min 0 UV-I 0 W/m 9,7 km/h (2 Bft)
18.01.2010 04:00 3,2 C 93 % 1021,0 hPa 0,0 mm 1,6 km/h (1 Bft) W-SW 247 0 min 0 UV-I 0 W/m 4,8 km/h (1 Bft)
18.01.2010 04:10 3,2 C 93 % 1021,1 hPa 0,0 mm 4,8 km/h (1 Bft) W 270 0 min 0 UV-I 0 W/m 11,3 km/h (2 Bft)
18.01.2010 04:20 3,2 C 93 % 1021,2 hPa 0,0 mm 1,6 km/h (1 Bft) W-SW 247 0 min 0 UV-I 0 W/m 9,7 km/h (2 Bft)
18.01.2010 04:30 3,2 C 93 % 1021,2 hPa 0,0 mm 1,6 km/h (1 Bft) W-SW 247 0 min 0 UV-I 0 W/m 6,4 km/h (2 Bft)
18.01.2010 04:40 3,2 C 93 % 1021,3 hPa 0,0 mm 1,6 km/h (1 Bft) W 270 0 min 0 UV-I 0 W/m 9,7 km/h (2 Bft)
18.01.2010 04:50 3,2 C 93 % 1021,3 hPa 0,0 mm 1,6 km/h (1 Bft) W-SW 247 0 min 0 UV-I 0 W/m 6,4 km/h (2 Bft)
18.01.2010 05:00 3,2 C 93 % 1021,3 hPa 0,0 mm 3,2 km/h (1 Bft) W-SW 247 0 min 0 UV-I 0 W/m 9,7 km/h (2 Bft)
18.01.2010 05:10 3,3 C 93 % 1021,4 hPa 0,0 mm 3,2 km/h (1 Bft) W-SW 247 0 min 0 UV-I 0 W/m 9,7 km/h (2 Bft)
18.01.2010 05:20 3,3 C 93 % 1021,6 hPa 0,0 mm 4,8 km/h (1 Bft) W-SW 247 0 min 0 UV-I 0 W/m 8,0 km/h (2 Bft)
18.01.2010 05:30 3,3 C 93 % 1021,6 hPa 0,0 mm 3,2 km/h (1 Bft) W-SW 247 0 min 0 UV-I 0 W/m 8,0 km/h (2 Bft)
18.01.2010 05:40 3,3 C 93 % 1021,7 hPa 0,0 mm 3,2 km/h (1 Bft) W 270 0 min 0 UV-I 0 W/m 11,3 km/h (2 Bft)
18.01.2010 05:50 3,4 C 93 % 1021,7 hPa 0,0 mm 3,2 km/h (1 Bft) W-SW 247 0 min 0 UV-I 0 W/m 9,7 km/h (2 Bft)
18.01.2010 06:00 3,4 C 93 % 1021,6 hPa 0,0 mm 3,2 km/h (1 Bft) W-SW 247 0 min 0 UV-I 0 W/m 11,3 km/h (2 Bft)
18.01.2010 06:10 3,4 C 93 % 1021,7 hPa 0,0 mm 4,8 km/h (1 Bft) W-SW 247 0 min 0 UV-I 0 W/m 14,5 km/h (3 Bft)
18.01.2010 06:20 3,5 C 94 % 1021,7 hPa 0,0 mm 4,8 km/h (1 Bft) W-SW 247 0 min 0 UV-I 0 W/m 11,3 km/h (2 Bft)
18.01.2010 06:30 3,5 C 94 % 1021,9 hPa 0,0 mm 4,8 km/h (1 Bft) W-SW 247 0 min 0 UV-I 0 W/m 11,3 km/h (2 Bft)
18.01.2010 06:40 3,6 C 94 % 1022,0 hPa 0,0 mm 4,8 km/h (1 Bft) W 270 0 min 0 UV-I 0 W/m 12,9 km/h (3 Bft)
18.01.2010 06:50 3,6 C 94 % 1022,0 hPa 0,0 mm 6,4 km/h (2 Bft) W-SW 247 0 min 0 UV-I 0 W/m 14,5 km/h (3 Bft)
18.01.2010 07:00 3,6 C 94 % 1022,2 hPa 0,0 mm 6,4 km/h (2 Bft) W-SW 247 0 min 0 UV-I 0 W/m 19,3 km/h (3 Bft)
18.01.2010 07:10 3,7 C 94 % 1022,1 hPa 0,0 mm 6,4 km/h (2 Bft) W-SW 247 0 min 0 UV-I 0 W/m 16,1 km/h (3 Bft)
18.01.2010 07:20 3,7 C 94 % 1022,2 hPa 0,0 mm 4,8 km/h (1 Bft) W-SW 247 0 min 0 UV-I 0 W/m 11,3 km/h (2 Bft)
18.01.2010 07:30 3,7 C 94 % 1022,1 hPa 0,0 mm 4,8 km/h (1 Bft) W-SW 247 0 min 0 UV-I 0 W/m 11,3 km/h (2 Bft)
18.01.2010 07:40 3,7 C 94 % 1022,2 hPa 0,0 mm 6,4 km/h (2 Bft) W-SW 247 0 min 0 UV-I 0 W/m 12,9 km/h (3 Bft)
18.01.2010 07:50 3,7 C 94 % 1022,3 hPa 0,0 mm 4,8 km/h (1 Bft) W-SW 247 0 min 0 UV-I 0 W/m 11,3 km/h (2 Bft)
18.01.2010 08:00 3,6 C 94 % 1022,4 hPa 0,0 mm 3,2 km/h (1 Bft) W-SW 247 0 min 0 UV-I 0 W/m 14,5 km/h (3 Bft)
18.01.2010 08:10 3,6 C 94 % 1022,4 hPa 0,0 mm 1,6 km/h (1 Bft) W 270 0 min 0 UV-I 0 W/m 8,0 km/h (2 Bft)
18.01.2010 08:20 3,6 C 94 % 1022,5 hPa 0,0 mm 4,8 km/h (1 Bft) W-SW 247 0 min 0 UV-I 0 W/m 14,5 km/h (3 Bft)
18.01.2010 08:30 3,7 C 94 % 1022,6 hPa 0,0 mm 3,4 km/h (1 Bft) W 273 0 min 0 UV-I 0 W/m 9,7 km/h (2 Bft)
18.01.2010 08:40 3,7 C 94 % 1022,7 hPa 0,0 mm 1,6 km/h (1 Bft) W 270 0 min 0 UV-I 0 W/m 9,7 km/h (2 Bft)
18.01.2010 08:50 3,7 C 94 % 1022,8 hPa 0,0 mm 1,6 km/h (1 Bft) W 270 0 min 0 UV-I 5 W/m 9,7 km/h (2 Bft)
18.01.2010 09:00 3,6 C 94 % 1023,0 hPa 0,0 mm 1,6 km/h (1 Bft) W-NW 292 0 min 0 UV-I 11 W/m 6,4 km/h (2 Bft)
18.01.2010 09:10 3,6 C 94 % 1023,2 hPa 0,0 mm 1,6 km/h (1 Bft) W 270 0 min 0 UV-I 9 W/m 8,0 km/h (2 Bft)
18.01.2010 09:20 3,6 C 94 % 1023,2 hPa 0,0 mm 1,6 km/h (1 Bft) W-SW 247 0 min 0 UV-I 11 W/m 4,8 km/h (1 Bft)
18.01.2010 09:30 3,6 C 94 % 1023,4 hPa 0,0 mm 1,6 km/h (1 Bft) W 270 0 min 0 UV-I 18 W/m 8,0 km/h (2 Bft)
18.01.2010 09:40 3,6 C 94 % 1023,4 hPa 0,0 mm 3,2 km/h (1 Bft) W 270 0 min 0 UV-I 30 W/m 8,0 km/h (2 Bft)
18.01.2010 09:50 3,6 C 94 % 1023,4 hPa 0,0 mm 3,2 km/h (1 Bft) W 270 0 min 0 UV-I 33 W/m 9,7 km/h (2 Bft)
18.01.2010 10:00 3,7 C 94 % 1023,6 hPa 0,0 mm 3,2 km/h (1 Bft) W 270 0 min 0 UV-I 26 W/m 9,7 km/h (2 Bft)
18.01.2010 10:10 3,7 C 94 % 1023,5 hPa 0,0 mm 1,6 km/h (1 Bft) W 270 0 min 0 UV-I 33 W/m 8,0 km/h (2 Bft)
18.01.2010 10:20 3,7 C 94 % 1023,6 hPa 0,0 mm 1,6 km/h (1 Bft) W 270 0 min 0 UV-I 47 W/m 8,0 km/h (2 Bft)
18.01.2010 10:30 3,7 C 94 % 1023,7 hPa 0,0 mm 1,6 km/h (1 Bft) W 270 0 min 0 UV-I 58 W/m 6,4 km/h (2 Bft)
18.01.2010 10:40 3,7 C 94 % 1023,8 hPa 0,0 mm 1,6 km/h (1 Bft) W 270 0 min 0 UV-I 54 W/m 4,8 km/h (1 Bft)
18.01.2010 10:50 3,8 C 94 % 1023,9 hPa 0,0 mm 1,6 km/h (1 Bft) W 270 0 min 0 UV-I 40 W/m 4,8 km/h (1 Bft)
18.01.2010 11:00 3,8 C 94 % 1023,9 hPa 0,0 mm 0,0 km/h (0 Bft) W 270 0 min 0 UV-I 39 W/m 3,2 km/h (1 Bft)
18.01.2010 11:10 3,9 C 94 % 1023,9 hPa 0,0 mm 1,6 km/h (1 Bft) W 270 0 min 0 UV-I 63 W/m 9,7 km/h (2 Bft)
18.01.2010 11:20 3,9 C 94 % 1023,9 hPa 0,0 mm 1,6 km/h (1 Bft) W-SW 247 0 min 1 UV-I 102 W/m 6,4 km/h (2 Bft)
18.01.2010 11:30 4,1 C 94 % 1023,9 hPa 0,0 mm 3,2 km/h (1 Bft) W 270 0 min 0 UV-I 81 W/m 8,0 km/h (2 Bft)
18.01.2010 11:40 4,1 C 94 % 1023,8 hPa 0,0 mm 1,6 km/h (1 Bft) W 270 0 min 0 UV-I 69 W/m 8,0 km/h (2 Bft)
18.01.2010 11:50 4,2 C 94 % 1023,7 hPa 0,0 mm 3,2 km/h (1 Bft) W-SW 247 0 min 0 UV-I 72 W/m 8,0 km/h (2 Bft)
18.01.2010 12:00 4,3 C 94 % 1023,6 hPa 0,0 mm 1,6 km/h (1 Bft) W-SW 247 0 min 0 UV-I 53 W/m 9,7 km/h (2 Bft)
18.01.2010 12:10 4,3 C 94 % 1023,6 hPa 0,0 mm 1,6 km/h (1 Bft) SW 225 0 min 0 UV-I 44 W/m 6,4 km/h (2 Bft)
18.01.2010 12:20 4,3 C 94 % 1023,6 hPa 0,0 mm 1,6 km/h (1 Bft) SW 225 0 min 0 UV-I 33 W/m 8,0 km/h (2 Bft)
18.01.2010 12:30 4,3 C 94 % 1023,6 hPa 0,0 mm 0,0 km/h (0 Bft) W-SW 247 0 min 0 UV-I 42 W/m 3,2 km/h (1 Bft)
18.01.2010 12:40 4,3 C 94 % 1023,5 hPa 0,0 mm 0,0 km/h (0 Bft) W-SW 247 0 min 0 UV-I 28 W/m 4,8 km/h (1 Bft)
18.01.2010 12:50 4,3 C 94 % 1023,5 hPa 0,0 mm 3,2 km/h (1 Bft) W-SW 247 0 min 0 UV-I 35 W/m 8,0 km/h (2 Bft)
18.01.2010 13:00 4,3 C 94 % 1023,3 hPa 0,0 mm 3,2 km/h (1 Bft) W-SW 247 0 min 0 UV-I 72 W/m 9,7 km/h (2 Bft)
18.01.2010 13:10 4,3 C 94 % 1023,3 hPa 0,0 mm 4,8 km/h (1 Bft) W-SW 247 0 min 0 UV-I 69 W/m 14,5 km/h (3 Bft)
18.01.2010 13:20 4,4 C 94 % 1023,3 hPa 0,0 mm 3,2 km/h (1 Bft) W-SW 247 0 min 0 UV-I 79 W/m 9,7 km/h (2 Bft)
18.01.2010 13:30 4,4 C 94 % 1023,4 hPa 0,0 mm 1,6 km/h (1 Bft) W-SW 247 0 min 0 UV-I 39 W/m 6,4 km/h (2 Bft)
18.01.2010 13:40 4,5 C 94 % 1023,4 hPa 0,0 mm 1,6 km/h (1 Bft) W-SW 247 0 min 0 UV-I 28 W/m 8,0 km/h (2 Bft)
18.01.2010 13:50 4,4 C 94 % 1023,4 hPa 0,0 mm 3,2 km/h (1 Bft) W-SW 247 0 min 0 UV-I 30 W/m 8,0 km/h (2 Bft)
18.01.2010 14:00 4,4 C 94 % 1023,3 hPa 0,0 mm 3,2 km/h (1 Bft) W 270 0 min 0 UV-I 51 W/m 11,3 km/h (2 Bft)
18.01.2010 14:10 4,5 C 94 % 1023,3 hPa 0,0 mm 3,2 km/h (1 Bft) W-SW 247 0 min 0 UV-I 95 W/m 9,7 km/h (2 Bft)
18.01.2010 14:20 4,6 C 94 % 1023,3 hPa 0,0 mm 3,2 km/h (1 Bft) W-SW 247 0 min 0 UV-I 84 W/m 11,3 km/h (2 Bft)
18.01.2010 14:30 4,6 C 94 % 1023,3 hPa 0,0 mm 4,8 km/h (1 Bft) W 270 0 min 0 UV-I 56 W/m 12,9 km/h (3 Bft)
18.01.2010 14:40 4,6 C 94 % 1023,4 hPa 0,0 mm 4,8 km/h (1 Bft) W 270 0 min 0 UV-I 83 W/m 14,5 km/h (3 Bft)
18.01.2010 14:50 4,6 C 94 % 1023,5 hPa 0,0 mm 3,2 km/h (1 Bft) W-SW 247 0 min 0 UV-I 83 W/m 14,5 km/h (3 Bft)
18.01.2010 15:00 4,7 C 94 % 1023,5 hPa 0,0 mm 4,8 km/h (1 Bft) W-SW 247 0 min 0 UV-I 54 W/m 12,9 km/h (3 Bft)
18.01.2010 15:10 4,7 C 94 % 1023,5 hPa 0,0 mm 4,8 km/h (1 Bft) W-SW 247 0 min 0 UV-I 49 W/m 16,1 km/h (3 Bft)
18.01.2010 15:20 4,7 C 94 % 1023,5 hPa 0,0 mm 4,8 km/h (1 Bft) W-SW 247 0 min 0 UV-I 42 W/m 11,3 km/h (2 Bft)
18.01.2010 15:30 4,6 C 94 % 1023,6 hPa 0,0 mm 4,8 km/h (1 Bft) W-SW 247 0 min 0 UV-I 39 W/m 11,3 km/h (2 Bft)
18.01.2010 15:40 4,6 C 94 % 1023,6 hPa 0,0 mm 3,2 km/h (1 Bft) W-SW 247 0 min 0 UV-I 46 W/m 8,0 km/h (2 Bft)
18.01.2010 15:50 4,6 C 94 % 1023,7 hPa 0,0 mm 4,8 km/h (1 Bft) W-SW 247 0 min 0 UV-I 44 W/m 19,3 km/h (3 Bft)
18.01.2010 16:00 4,5 C 94 % 1023,8 hPa 0,0 mm 4,7 km/h (1 Bft) W 273 0 min 0 UV-I 18 W/m 8,0 km/h (2 Bft)
18.01.2010 16:10 4,5 C 94 % 1023,8 hPa 0,0 mm 1,6 km/h (1 Bft) W-SW 247 0 min 0 UV-I 21 W/m 8,0 km/h (2 Bft)
18.01.2010 16:20 4,4 C 94 % 1023,8 hPa 0,0 mm 1,6 km/h (1 Bft) W-SW 247 0 min 0 UV-I 12 W/m 4,8 km/h (1 Bft)
18.01.2010 16:30 4,4 C 94 % 1023,8 hPa 0,0 mm 1,6 km/h (1 Bft) W-SW 247 0 min 0 UV-I 0 W/m 6,4 km/h (2 Bft)
18.01.2010 16:40 4,3 C 94 % 1023,9 hPa 0,0 mm 3,2 km/h (1 Bft) W-SW 247 0 min 0 UV-I 0 W/m 12,9 km/h (3 Bft)
18.01.2010 16:50 4,3 C 94 % 1023,9 hPa 0,0 mm 4,8 km/h (1 Bft) W-SW 247 0 min 0 UV-I 0 W/m 12,9 km/h (3 Bft)
18.01.2010 17:00 4,2 C 94 % 1023,9 hPa 0,0 mm 3,2 km/h (1 Bft) W-SW 247 0 min 0 UV-I 0 W/m 9,7 km/h (2 Bft)
18.01.2010 17:10 4,2 C 94 % 1023,9 hPa 0,3 mm 1,6 km/h (1 Bft) W-SW 247 0 min 0 UV-I 0 W/m 8,0 km/h (2 Bft)
18.01.2010 17:20 4,2 C 93 % 1023,9 hPa 0,0 mm 1,6 km/h (1 Bft) W-SW 247 0 min 0 UV-I 0 W/m 6,4 km/h (2 Bft)
18.01.2010 17:30 4,1 C 93 % 1024,0 hPa 0,0 mm 3,2 km/h (1 Bft) W-SW 247 0 min 0 UV-I 0 W/m 9,7 km/h (2 Bft)
18.01.2010 17:40 4,1 C 93 % 1024,0 hPa 0,0 mm 1,6 km/h (1 Bft) W-SW 247 0 min 0 UV-I 0 W/m 6,4 km/h (2 Bft)
18.01.2010 17:50 4,1 C 93 % 1024,0 hPa 0,3 mm 1,6 km/h (1 Bft) W-SW 247 0 min 0 UV-I 0 W/m 4,8 km/h (1 Bft)
18.01.2010 18:00 4,0 C 93 % 1024,0 hPa 0,0 mm 0,0 km/h (0 Bft) W-SW 247 0 min 0 UV-I 0 W/m 3,2 km/h (1 Bft)
18.01.2010 18:10 4,0 C 93 % 1024,0 hPa 0,0 mm 0,0 km/h (0 Bft) SW 225 0 min 0 UV-I 0 W/m 4,8 km/h (1 Bft)
18.01.2010 18:20 3,9 C 93 % 1024,0 hPa 0,3 mm 1,6 km/h (1 Bft) W-SW 247 0 min 0 UV-I 0 W/m 8,0 km/h (2 Bft)
18.01.2010 18:30 3,9 C 93 % 1023,9 hPa 0,0 mm 0,0 km/h (0 Bft) SW 225 0 min 0 UV-I 0 W/m 3,2 km/h (1 Bft)
18.01.2010 18:40 3,8 C 93 % 1024,0 hPa 0,0 mm 0,0 km/h (0 Bft) SW 225 0 min 0 UV-I 0 W/m 3,2 km/h (1 Bft)
18.01.2010 18:50 3,8 C 93 % 1024,0 hPa 0,0 mm 0,0 km/h (0 Bft) SW 225 0 min 0 UV-I 0 W/m 1,6 km/h (1 Bft)
18.01.2010 19:00 3,8 C 93 % 1023,9 hPa 0,0 mm 0,0 km/h (0 Bft) N 0 0 min 0 UV-I 0 W/m 0,0 km/h (0 Bft)
18.01.2010 19:10 3,8 C 93 % 1023,9 hPa 0,0 mm 0,0 km/h (0 Bft) N 0 0 min 0 UV-I 0 W/m 0,0 km/h (0 Bft)
18.01.2010 19:20 3,7 C 93 % 1024,0 hPa 0,0 mm 0,0 km/h (0 Bft) N 0 0 min 0 UV-I 0 W/m 0,0 km/h (0 Bft)
18.01.2010 19:30 3,7 C 93 % 1023,9 hPa 0,0 mm 0,0 km/h (0 Bft) SW 225 0 min 0 UV-I 0 W/m 1,6 km/h (1 Bft)
18.01.2010 19:40 3,6 C 93 % 1023,8 hPa 0,0 mm 0,0 km/h (0 Bft) N 0 0 min 0 UV-I 0 W/m 0,0 km/h (0 Bft)
18.01.2010 19:50 3,6 C 93 % 1023,8 hPa 0,3 mm 0,0 km/h (0 Bft) SW 225 0 min 0 UV-I 0 W/m 1,6 km/h (1 Bft)
18.01.2010 20:00 3,6 C 93 % 1023,7 hPa 0,0 mm 0,0 km/h (0 Bft) SW 225 0 min 0 UV-I 0 W/m 1,6 km/h (1 Bft)
18.01.2010 20:10 3,6 C 93 % 1023,7 hPa 0,0 mm 0,0 km/h (0 Bft) SW 225 0 min 0 UV-I 0 W/m 1,6 km/h (1 Bft)
18.01.2010 20:20 3,6 C 93 % 1023,7 hPa 0,0 mm 0,0 km/h (0 Bft) SW 225 0 min 0 UV-I 0 W/m 3,2 km/h (1 Bft)
18.01.2010 20:30 3,6 C 93 % 1023,6 hPa 0,0 mm 0,0 km/h (0 Bft) S-SW 202 0 min 0 UV-I 0 W/m 3,2 km/h (1 Bft)
18.01.2010 20:40 3,6 C 93 % 1023,6 hPa 0,0 mm 0,0 km/h (0 Bft) S-SW 202 0 min 0 UV-I 0 W/m 3,2 km/h (1 Bft)
18.01.2010 20:50 3,6 C 93 % 1023,5 hPa 0,0 mm 0,0 km/h (0 Bft) SW 225 0 min 0 UV-I 0 W/m 4,8 km/h (1 Bft)
18.01.2010 21:00 3,6 C 93 % 1023,5 hPa 0,0 mm 0,0 km/h (0 Bft) SW 225 0 min 0 UV-I 0 W/m 3,2 km/h (1 Bft)
18.01.2010 21:10 3,7 C 93 % 1023,4 hPa 0,0 mm 0,0 km/h (0 Bft) SW 225 0 min 0 UV-I 0 W/m 3,2 km/h (1 Bft)
18.01.2010 21:20 3,7 C 93 % 1023,4 hPa 0,0 mm 0,0 km/h (0 Bft) SW 225 0 min 0 UV-I 0 W/m 3,2 km/h (1 Bft)
18.01.2010 21:30 3,7 C 93 % 1023,3 hPa 0,3 mm 0,0 km/h (0 Bft) SW 225 0 min 0 UV-I 0 W/m 1,6 km/h (1 Bft)
18.01.2010 21:40 3,7 C 93 % 1023,3 hPa 0,0 mm 0,0 km/h (0 Bft) SW 225 0 min 0 UV-I 0 W/m 1,6 km/h (1 Bft)
18.01.2010 21:50 3,7 C 93 % 1023,2 hPa 0,3 mm 0,0 km/h (0 Bft) SW 225 0 min 0 UV-I 0 W/m 1,6 km/h (1 Bft)
18.01.2010 22:00 3,7 C 93 % 1023,1 hPa 0,0 mm 0,0 km/h (0 Bft) N 0 0 min 0 UV-I 0 W/m 0,0 km/h (0 Bft)
18.01.2010 22:10 3,7 C 93 % 1023,1 hPa 0,0 mm 0,0 km/h (0 Bft) SW 225 0 min 0 UV-I 0 W/m 3,2 km/h (1 Bft)
18.01.2010 22:20 3,7 C 93 % 1023,1 hPa 0,0 mm 0,0 km/h (0 Bft) SW 225 0 min 0 UV-I 0 W/m 1,6 km/h (1 Bft)
18.01.2010 22:30 3,7 C 93 % 1023,0 hPa 0,0 mm 0,0 km/h (0 Bft) SW 225 0 min 0 UV-I 0 W/m 3,2 km/h (1 Bft)
18.01.2010 22:40 3,7 C 93 % 1023,0 hPa 0,3 mm 0,2 km/h (0 Bft) SW 230 0 min 0 UV-I 0 W/m 3,2 km/h (1 Bft)
18.01.2010 22:50 3,7 C 93 % 1022,9 hPa 0,3 mm 0,2 km/h (0 Bft) SW 225 0 min 0 UV-I 0 W/m 3,2 km/h (1 Bft)
18.01.2010 23:00 3,7 C 93 % 1023,0 hPa 0,0 mm 0,2 km/h (0 Bft) SW 217 0 min 0 UV-I 0 W/m 4,8 km/h (1 Bft)
18.01.2010 23:10 3,7 C 93 % 1022,9 hPa 0,0 mm 0,5 km/h (0 Bft) SW 218 0 min 0 UV-I 0 W/m 4,8 km/h (1 Bft)
18.01.2010 23:20 3,7 C 93 % 1022,9 hPa 0,0 mm 0,5 km/h (0 Bft) SW 221 0 min 0 UV-I 0 W/m 4,8 km/h (1 Bft)
18.01.2010 23:30 3,7 C 93 % 1022,9 hPa 0,0 mm 0,4 km/h (0 Bft) SW 221 0 min 0 UV-I 0 W/m 3,2 km/h (1 Bft)
18.01.2010 23:40 3,7 C 93 % 1022,8 hPa 0,0 mm 0,1 km/h (0 Bft) SW 221 0 min 0 UV-I 0 W/m 1,6 km/h (1 Bft)
18.01.2010 23:50 3,7 C 93 % 1022,8 hPa 0,0 mm 0,1 km/h (0 Bft) SW 220 0 min 0 UV-I 0 W/m 1,6 km/h (1 Bft)
_ Min-Zeit 00:30 00:00 00:00 - 11:00 - - - - - 19:00
Minimum _ 3,0 C 93 % 1019,6 hPa - 0,0 km/h (0 Bft) - - - - - 0,0 km/h (0 Bft)
_ Max-Zeit 14:50 06:20 17:30 00:30 06:50 - - 00:00 11:20 11:20 07:00
Maximum _ 4,7 C 94 % 1024,0 hPa 0,3 mm 6,4 km/h
W-SW (2 Bft)
- - 0 min 1 UV-I 102 W/m 19,3 km/h
W-SW (3 Bft)
Durchschnitt _ 3,7 C 93 % 1022,6 hPa #2,3 mm 2,3 km/h (1 Bft) W-SW - #0 min. 1 UV-I 46 W/m 7,9 km/h (2 Bft)